Time;durP1;ratioP1;P1;durP2;ratioP2;P2;SDS_P1;SDS_P2;PMS_P1;PMS_P2;Temp;Humidity;BMP_temperature;BMP_pressure;BME280_temperature;BME280_humidity;BME280_pressure;Samples;Min_cycle;Max_cycle;Signal;HPM_P1;HPM_P2
2021/03/05 05:59:02;;;;;;;3.20;2.30;;;-1.50;99.90;;;;;;6083226;23;20409;-92
2021/03/05 06:05:07;;;;;;;3.50;2.37;;;-1.50;99.90;;;;;;6101772;23;20495;-90
2021/03/05 06:07:39;;;;;;;8.17;3.37;;;-1.60;99.90;;;;;;6101568;23;20429;-88
2021/03/05 06:10:14;;;;;;;5.00;2.63;;;-1.60;99.90;;;;;;6101785;23;20919;-88
2021/03/05 06:13:00;;;;;;;4.27;3.20;;;-1.60;99.90;;;;;;6101483;23;20421;-87
2021/03/05 06:16:43;;;;;;;;;;;;;;;;;;;;;
2021/03/05 06:19:31;;;;;;;4.93;3.90;;;-1.60;99.90;;;;;;6098775;23;20436;-87
2021/03/05 06:22:23;;;;;;;4.80;2.90;;;-1.60;99.90;;;;;;6101838;23;20438;-88
2021/03/05 06:25:30;;;;;;;4.60;3.07;;;-1.60;99.90;;;;;;6100871;23;20441;-87
2021/03/05 06:28:14;;;;;;;7.80;3.07;;;-1.60;99.90;;;;;;6102602;23;20508;-88
2021/03/05 06:30:58;;;;;;;;;;;;;;;;;;;;;
2021/03/05 06:33:30;;;;;;;4.63;3.10;;;-1.60;99.90;;;;;;6104473;23;20410;-88
2021/03/05 06:36:21;;;;;;;5.80;2.67;;;-1.60;99.90;;;;;;6104742;23;20461;-88
2021/03/05 06:38:50;;;;;;;4.57;3.20;;;-1.70;99.90;;;;;;6104660;23;20420;-87
2021/03/05 06:41:22;;;;;;;5.50;3.30;;;-1.60;99.90;;;;;;6119926;23;20502;-88
2021/03/05 06:44:07;;;;;;;6.27;2.80;;;-1.60;99.90;;;;;;6126247;23;20412;-87
2021/03/05 06:46:44;;;;;;;5.00;3.30;;;-1.60;99.90;;;;;;6125925;23;20404;-88
2021/03/05 06:49:28;;;;;;;5.63;3.37;;;-1.70;99.90;;;;;;6106508;23;20904;-89
2021/03/05 06:52:07;;;;;;;4.73;3.03;;;-1.70;99.90;;;;;;6140246;23;20441;-89
2021/03/05 06:54:43;;;;;;;7.33;3.60;;;-1.60;99.90;;;;;;6114474;23;20468;-89
2021/03/05 06:57:34;;;;;;;3.40;3.03;;;-1.60;99.90;;;;;;6104233;23;20420;-89
2021/03/05 07:00:28;;;;;;;;;;;;;;;;;;;;;
2021/03/05 07:03:17;;;;;;;5.20;3.57;;;-1.50;99.90;;;;;;6103401;23;20441;-90
2021/03/05 07:05:50;;;;;;;4.50;3.47;;;-1.50;99.90;;;;;;6103337;23;20453;-89
2021/03/05 07:08:57;;;;;;;5.10;3.40;;;-1.40;99.90;;;;;;6103687;23;20413;-90
2021/03/05 07:11:44;;;;;;;5.20;3.03;;;-1.30;99.90;;;;;;6103713;23;20409;-89
2021/03/05 07:17:32;;;;;;;4.83;3.47;;;-1.10;99.90;;;;;;6098642;23;20725;-89
2021/03/05 07:20:15;;;;;;;6.03;3.77;;;-1.00;99.90;;;;;;6104183;23;20409;-89
2021/03/05 07:22:59;;;;;;;5.10;3.37;;;-1.00;99.90;;;;;;6103470;23;20429;-89
2021/03/05 07:28:21;;;;;;;5.30;3.50;;;-0.90;99.90;;;;;;6080674;23;20966;-89
2021/03/05 07:31:10;;;;;;;;;;;;;;;;;;;;;
2021/03/05 07:33:55;;;;;;;3.47;2.80;;;-0.70;99.90;;;;;;6103918;23;20504;-89
2021/03/05 07:36:38;;;;;;;3.40;3.10;;;-0.60;99.90;;;;;;6103211;23;20409;-89
2021/03/05 07:39:54;;;;;;;3.70;3.30;;;-0.60;99.90;;;;;;6097466;23;20424;-89
2021/03/05 07:42:42;;;;;;;3.97;2.97;;;-0.50;99.90;;;;;;6103698;23;20489;-89
2021/03/05 07:45:14;;;;;;;7.40;3.83;;;-0.50;99.90;;;;;;6104126;23;20495;-89
2021/03/05 07:48:08;;;;;;;3.70;2.90;;;-0.40;99.90;;;;;;6104764;23;20414;-89
2021/03/05 07:50:42;;;;;;;5.03;3.33;;;-0.40;99.90;;;;;;6103385;23;20418;-89
2021/03/05 07:53:11;;;;;;;5.83;2.80;;;-0.30;99.90;;;;;;6139585;23;20811;-89
2021/03/05 07:55:47;;;;;;;3.60;2.70;;;-0.20;99.90;;;;;;6127802;23;20436;-89
2021/03/05 07:58:49;;;;;;;3.10;2.60;;;-0.10;99.90;;;;;;6157964;23;20474;-89
2021/03/05 08:01:53;;;;;;;2.73;2.30;;;0.00;99.90;;;;;;6157957;23;20408;-89
2021/03/05 08:05:04;;;;;;;5.60;2.70;;;0.10;99.90;;;;;;6181522;23;20569;-89
2021/03/05 08:07:42;;;;;;;6.57;2.43;;;0.20;99.90;;;;;;6182080;23;20509;-89
2021/03/05 08:10:37;;;;;;;5.47;2.53;;;0.20;99.90;;;;;;6156875;23;20420;-89
2021/03/05 08:13:47;;;;;;;4.37;3.20;;;0.40;99.90;;;;;;6182438;23;20416;-89
2021/03/05 08:16:38;;;;;;;6.37;2.80;;;0.50;99.90;;;;;;6158205;23;20480;-89
2021/03/05 08:19:57;;;;;;;3.87;3.20;;;0.80;99.90;;;;;;6158733;23;20416;-89
2021/03/05 08:22:32;;;;;;;4.10;2.50;;;1.00;99.90;;;;;;6157989;23;20441;-89
2021/03/05 08:25:28;;;;;;;6.10;2.53;;;1.20;99.90;;;;;;6181034;23;20437;-89
2021/03/05 08:28:03;;;;;;;3.57;2.27;;;1.40;99.90;;;;;;6181876;23;20500;-90
2021/03/05 08:30:47;;;;;;;4.90;3.10;;;1.60;99.90;;;;;;6156169;23;20416;-89
2021/03/05 08:33:27;;;;;;;4.10;2.83;;;1.70;99.90;;;;;;6181094;23;20416;-89
2021/03/05 08:36:01;;;;;;;4.57;3.27;;;1.90;99.90;;;;;;6156342;23;20989;-90
2021/03/05 08:38:43;;;;;;;2.70;2.03;;;2.10;99.90;;;;;;6157045;23;20410;-90
2021/03/05 08:41:25;;;;;;;7.73;2.87;;;2.20;99.90;;;;;;6156424;23;20422;-90
2021/03/05 08:44:09;;;;;;;2.93;2.13;;;2.40;99.90;;;;;;6181041;23;20436;-90
2021/03/05 08:46:45;;;;;;;2.80;2.47;;;2.50;99.90;;;;;;6156260;23;20416;-90
2021/03/05 08:49:34;;;;;;;3.00;1.77;;;2.60;99.90;;;;;;6156699;23;20415;-90
2021/03/05 08:52:21;;;;;;;3.57;2.03;;;2.70;99.90;;;;;;6181752;23;20404;-90
2021/03/05 08:54:59;;;;;;;3.43;1.90;;;2.90;99.90;;;;;;6151681;23;20455;-90
2021/03/05 08:57:59;;;;;;;3.57;2.00;;;3.00;99.90;;;;;;6083370;23;20495;-90
2021/03/05 09:00:51;;;;;;;4.30;2.03;;;3.10;99.90;;;;;;6102228;23;20425;-90
2021/03/05 09:03:32;;;;;;;4.30;2.20;;;3.10;99.90;;;;;;6103170;23;20447;-90
2021/03/05 09:06:15;;;;;;;5.50;2.50;;;3.20;99.90;;;;;;6101100;23;20441;-90
2021/03/05 09:08:45;;;;;;;4.13;2.03;;;3.30;99.90;;;;;;6102292;23;20162;-90
2021/03/05 09:11:35;;;;;;;4.00;1.97;;;3.30;99.90;;;;;;6103558;23;20473;-90
2021/03/05 09:15:03;;;;;;;3.47;1.60;;;3.30;99.90;;;;;;6102571;23;20437;-90
2021/03/05 09:17:41;;;;;;;2.47;1.70;;;3.30;99.90;;;;;;6101402;23;20498;-90
2021/03/05 09:20:32;;;;;;;2.17;1.67;;;3.40;99.90;;;;;;6103377;23;20558;-90
2021/03/05 09:23:36;;;;;;;1.93;1.40;;;3.50;99.90;;;;;;6040243;23;20461;-90
2021/03/05 09:26:14;;;;;;;3.33;1.40;;;3.50;99.90;;;;;;6104528;23;20475;-90
2021/03/05 09:29:06;;;;;;;;;;;;;;;;;;;;;
2021/03/05 09:31:43;;;;;;;2.00;1.10;;;3.50;99.90;;;;;;6102533;23;20457;-90
2021/03/05 09:34:30;;;;;;;2.40;1.30;;;3.50;99.90;;;;;;6103261;23;20537;-90
2021/03/05 09:37:14;;;;;;;2.93;1.50;;;3.60;99.90;;;;;;6102504;23;20508;-90
2021/03/05 09:39:56;;;;;;;3.60;1.17;;;3.60;99.90;;;;;;6102710;23;20413;-91
2021/03/05 09:43:14;;;;;;;38.00;3.17;;;3.60;99.90;;;;;;6102046;23;20452;-90
2021/03/05 09:45:52;;;;;;;2.87;2.03;;;3.60;99.90;;;;;;5986894;23;20448;-91
2021/03/05 09:48:43;;;;;;;;;;;;;;;;;;;;;
2021/03/05 09:51:50;;;;;;;1.90;0.90;;;3.70;99.90;;;;;;6101995;23;20420;-91
2021/03/05 09:54:49;;;;;;;3.30;1.10;;;3.70;99.90;;;;;;6010571;23;20452;-90
2021/03/05 09:57:34;;;;;;;;;;;;;;;;;;;;;
2021/03/05 10:00:11;;;;;;;4.00;1.10;;;3.80;99.90;;;;;;6126606;23;20413;-91
2021/03/05 10:02:44;;;;;;;1.83;0.93;;;3.80;99.90;;;;;;6137394;23;20819;-91
2021/03/05 10:05:33;;;;;;;1.70;0.97;;;3.90;99.90;;;;;;6125988;23;20441;-91
2021/03/05 10:08:08;;;;;;;2.33;1.20;;;3.90;99.90;;;;;;6126014;23;20421;-91
2021/03/05 10:11:15;;;;;;;2.20;0.87;;;4.00;99.90;;;;;;6125876;23;20896;-90
2021/03/05 10:14:23;;;;;;;3.10;1.37;;;4.10;99.90;;;;;;6072175;23;20953;-91
2021/03/05 10:20:03;;;;;;;1.93;1.33;;;4.10;99.90;;;;;;6126541;23;20504;-91
2021/03/05 10:22:39;;;;;;;2.63;1.00;;;4.10;99.90;;;;;;6126201;23;20468;-91
2021/03/05 10:25:25;;;;;;;;;;;;;;;;;;;;;
2021/03/05 10:28:30;;;;;;;1.67;1.00;;;4.20;99.90;;;;;;6126105;23;20417;-91
2021/03/05 10:31:38;;;;;;;4.10;1.30;;;4.20;99.90;;;;;;6029265;23;20426;-91
2021/03/05 10:34:28;;;;;;;2.73;1.23;;;4.30;99.90;;;;;;6043848;23;20505;-91
2021/03/05 10:37:04;;;;;;;3.10;0.93;;;4.40;99.90;;;;;;6043273;23;20945;-91
2021/03/05 10:39:39;;;;;;;4.63;1.53;;;4.40;99.90;;;;;;6043567;23;20427;-92
2021/03/05 10:42:37;;;;;;;2.07;1.20;;;4.40;99.90;;;;;;6043393;23;20466;-91
2021/03/05 10:45:13;;;;;;;1.77;0.90;;;4.40;99.90;;;;;;6023417;23;20443;-91
2021/03/05 10:47:50;;;;;;;1.57;1.00;;;4.50;99.90;;;;;;6043044;23;20418;-91
2021/03/05 10:50:48;;;;;;;3.23;1.30;;;4.50;99.90;;;;;;6066633;23;20439;-91
2021/03/05 10:53:24;;;;;;;3.93;1.07;;;4.60;99.90;;;;;;6080356;23;20418;-91
2021/03/05 10:55:59;;;;;;;1.63;0.87;;;4.60;99.90;;;;;;6143460;23;20448;-91
2021/03/05 10:58:44;;;;;;;2.63;1.20;;;4.60;99.90;;;;;;6156213;23;20495;-90
2021/03/05 11:01:33;;;;;;;2.37;1.30;;;4.70;99.90;;;;;;6166628;23;20389;-91
2021/03/05 11:04:31;;;;;;;2.13;0.90;;;4.70;99.90;;;;;;6179718;23;20971;-91
2021/03/05 11:07:06;;;;;;;1.97;0.90;;;4.70;99.90;;;;;;6160772;23;20439;-91
2021/03/05 11:09:37;;;;;;;2.37;1.20;;;4.80;99.90;;;;;;6162405;23;20447;-91
2021/03/05 11:12:52;;;;;;;;;;;;;;;;;;;;;
2021/03/05 11:18:23;;;;;;;2.53;0.90;;;4.90;99.90;;;;;;6146335;23;20506;-91
2021/03/05 11:20:59;;;;;;;1.40;0.90;;;5.00;99.90;;;;;;6157631;23;20412;-92
2021/03/05 11:23:54;;;;;;;2.90;1.10;;;5.00;99.90;;;;;;6158019;23;20927;-92
2021/03/05 11:26:26;;;;;;;1.50;1.23;;;5.00;99.90;;;;;;6157189;23;20412;-92
2021/03/05 11:32:38;;;;;;;1.93;1.20;;;5.10;99.90;;;;;;6159565;23;20416;-93
2021/03/05 11:35:55;;;;;;;2.80;0.90;;;5.20;99.90;;;;;;6084175;23;20452;-93
2021/03/05 11:39:12;;;;;;;3.60;1.27;;;5.30;99.90;;;;;;6149580;23;20471;-93
2021/03/05 17:23:52;;;;;;;3.60;2.77;;;5.10;94.70;;;;;;6190493;23;20466;-94
2021/03/05 17:26:27;;;;;;;7.03;3.07;;;5.10;94.80;;;;;;6164099;23;20415;-93
2021/03/05 17:28:55;;;;;;;8.50;5.20;;;5.00;94.90;;;;;;6164158;23;20439;-93
2021/03/05 17:31:31;;;;;;;7.40;4.90;;;4.90;94.90;;;;;;6163709;23;20478;-93
2021/03/05 17:34:12;;;;;;;8.90;4.60;;;4.90;95.10;;;;;;6164362;23;20913;-93
2021/03/05 17:36:47;;;;;;;8.98;4.40;;;4.80;95.10;;;;;;6167085;23;20424;-93
2021/03/05 17:39:18;;;;;;;6.50;3.80;;;4.90;95.40;;;;;;6166555;23;20418;-93
2021/03/05 17:41:46;;;;;;;6.97;3.57;;;4.80;95.40;;;;;;6165206;23;20506;-93
2021/03/05 17:44:18;;;;;;;7.10;3.93;;;4.70;95.50;;;;;;6167218;23;20442;-94
2021/03/05 17:46:53;;;;;;;8.70;4.63;;;4.70;95.60;;;;;;6215291;23;20452;-96
2021/03/05 17:49:25;;;;;;;7.60;4.37;;;4.70;95.80;;;;;;6188521;23;20148;-95
2021/03/05 17:51:55;;;;;;;8.93;5.60;;;4.70;95.80;;;;;;6188408;23;20491;-96
2021/03/05 17:54:28;;;;;;;7.17;4.43;;;4.60;95.80;;;;;;6188251;23;20404;-96
2021/03/05 17:56:57;;;;;;;7.33;4.70;;;4.50;95.90;;;;;;6188724;23;20408;-95
2021/03/05 17:59:30;;;;;;;6.03;5.00;;;4.40;96.00;;;;;;6188937;23;20391;-95
2021/03/05 18:02:00;;;;;;;6.63;4.97;;;4.30;96.00;;;;;;6189838;23;20384;-96
2021/03/05 18:04:42;;;;;;;7.47;4.73;;;4.30;96.20;;;;;;6188228;23;20419;-96
2021/03/05 18:07:21;;;;;;;8.33;6.17;;;4.20;96.20;;;;;;6188166;23;20450;-95
2021/03/05 18:09:52;;;;;;;10.87;6.87;;;4.20;96.30;;;;;;6188629;23;20420;-96
2021/03/05 18:12:30;;;;;;;7.87;5.37;;;4.10;96.40;;;;;;6187370;23;20412;-95
2021/03/05 18:14:57;;;;;;;8.63;5.47;;;4.00;96.50;;;;;;6188396;23;20398;-95
2021/03/05 18:17:25;;;;;;;7.07;5.70;;;4.00;96.50;;;;;;6188400;23;20396;-94
2021/03/05 18:20:01;;;;;;;8.40;4.30;;;3.90;96.60;;;;;;6187950;23;20449;-95
2021/03/05 18:22:50;;;;;;;7.00;3.90;;;3.90;96.70;;;;;;6184182;23;20431;-96
2021/03/05 18:25:43;;;;;;;6.57;4.50;;;3.80;96.80;;;;;;6186159;23;20383;-96
2021/03/05 18:28:11;;;;;;;6.33;3.90;;;3.80;96.80;;;;;;6188339;23;20418;-96
2021/03/05 18:30:39;;;;;;;9.13;7.07;;;3.70;96.90;;;;;;6189278;23;20450;-95
2021/03/05 18:33:07;;;;;;;13.50;11.30;;;3.80;97.00;;;;;;6189222;23;20474;-95
2021/03/05 18:35:37;;;;;;;15.93;14.23;;;3.60;97.00;;;;;;6187494;23;20408;-96
2021/03/05 18:38:05;;;;;;;10.20;9.00;;;3.60;97.10;;;;;;6188417;23;20416;-95
2021/03/05 18:40:33;;;;;;;15.80;10.87;;;3.60;97.20;;;;;;6188521;23;20502;-96
2021/03/05 18:43:01;;;;;;;17.57;10.80;;;3.50;97.20;;;;;;6189291;23;20435;-96
2021/03/05 18:45:29;;;;;;;12.73;10.03;;;3.50;97.20;;;;;;6187045;23;20422;-96
2021/03/05 18:47:57;;;;;;;10.40;8.00;;;3.40;97.20;;;;;;6188325;23;20438;-95
2021/03/05 18:50:25;;;;;;;11.20;9.50;;;3.40;97.30;;;;;;6189637;23;20482;-96
2021/03/05 18:52:52;;;;;;;12.53;9.10;;;3.30;97.60;;;;;;6189492;23;20458;-96
2021/03/05 18:55:20;;;;;;;9.07;8.17;;;3.30;97.40;;;;;;6185893;23;20438;-96
2021/03/05 18:57:47;;;;;;;9.63;8.70;;;3.20;97.70;;;;;;6182024;23;20453;-96
2021/03/05 19:00:17;;;;;;;7.40;6.70;;;3.20;97.60;;;;;;6183236;23;20439;-96
2021/03/05 19:02:47;;;;;;;9.30;6.40;;;3.20;97.60;;;;;;6182728;23;20465;-96
2021/03/05 19:05:15;;;;;;;7.93;5.80;;;3.10;97.60;;;;;;6185742;23;20414;-95
2021/03/05 19:07:44;;;;;;;12.30;7.27;;;3.10;97.70;;;;;;6183655;23;20422;-96
2021/03/05 19:10:12;;;;;;;7.17;6.47;;;3.00;97.70;;;;;;6186449;23;20509;-95
2021/03/05 19:12:40;;;;;;;8.03;6.17;;;2.90;97.70;;;;;;6184647;23;20751;-96
2021/03/05 19:15:10;;;;;;;10.87;6.83;;;2.90;97.80;;;;;;6189249;23;20482;-96
2021/03/05 19:17:40;;;;;;;9.03;7.10;;;2.80;97.80;;;;;;6186119;23;20443;-96
2021/03/05 19:20:10;;;;;;;12.37;7.13;;;2.80;97.90;;;;;;6189933;23;20499;-94
2021/03/05 19:22:38;;;;;;;11.20;10.13;;;2.70;97.90;;;;;;6189623;23;20423;-95
2021/03/05 19:25:08;;;;;;;12.37;11.03;;;2.70;97.90;;;;;;6188833;23;20473;-96
2021/03/05 19:27:35;;;;;;;17.97;13.70;;;2.60;98.00;;;;;;6185980;23;20438;-96
2021/03/05 19:30:07;;;;;;;14.90;11.33;;;2.60;98.00;;;;;;6183996;23;20438;-96
2021/03/05 19:32:34;;;;;;;12.67;11.47;;;2.60;98.10;;;;;;6184722;23;20408;-96
2021/03/05 19:35:06;;;;;;;12.37;11.10;;;2.50;98.10;;;;;;6186572;23;20419;-96
2021/03/05 19:37:33;;;;;;;12.77;11.57;;;2.50;98.20;;;;;;6189092;23;20478;-95
2021/03/05 19:40:01;;;;;;;14.47;13.00;;;2.40;98.20;;;;;;6187482;23;20429;-96
2021/03/05 19:42:28;;;;;;;13.20;11.90;;;2.40;98.20;;;;;;6186251;23;20483;-96
2021/03/05 19:44:57;;;;;;;11.63;10.53;;;2.30;98.30;;;;;;6187924;23;20447;-96
2021/03/05 19:47:24;;;;;;;15.20;11.27;;;2.30;98.30;;;;;;6185904;23;20423;-96
2021/03/05 19:49:52;;;;;;;7.97;7.17;;;2.20;98.40;;;;;;6184521;23;20440;-96
2021/03/05 19:52:21;;;;;;;7.50;6.70;;;2.20;98.50;;;;;;6186906;23;20461;-96
2021/03/05 19:54:48;;;;;;;7.77;6.57;;;2.20;98.60;;;;;;6188037;23;20419;-95
2021/03/05 19:57:16;;;;;;;8.50;5.53;;;2.20;98.70;;;;;;6184028;23;20411;-96
2021/03/05 19:59:44;;;;;;;7.63;5.93;;;2.10;98.70;;;;;;6187402;23;20434;-93
2021/03/05 20:02:11;;;;;;;8.53;5.93;;;2.10;98.80;;;;;;6189977;23;20391;-92
2021/03/05 20:04:39;;;;;;;9.90;6.10;;;2.10;98.90;;;;;;6188173;23;20453;-96
2021/03/05 20:07:06;;;;;;;5.87;4.97;;;2.10;99.00;;;;;;6180772;23;20444;-96
2021/03/05 20:09:35;;;;;;;8.60;4.90;;;2.10;99.00;;;;;;6184231;23;20428;-95
2021/03/05 20:12:05;;;;;;;8.43;6.23;;;2.00;99.00;;;;;;6185623;23;20484;-95
2021/03/05 20:14:48;;;;;;;9.50;7.00;;;2.00;99.10;;;;;;6183906;23;20404;-96
2021/03/05 20:17:15;;;;;;;6.73;5.50;;;2.00;99.10;;;;;;6174873;23;20423;-95
2021/03/05 20:19:44;;;;;;;5.40;4.87;;;2.00;99.10;;;;;;6174370;23;20525;-95
2021/03/05 20:22:11;;;;;;;4.87;3.90;;;1.90;99.10;;;;;;6175049;23;20431;-96
2021/03/05 20:24:39;;;;;;;10.47;5.00;;;1.90;99.20;;;;;;6175993;23;20446;-95
2021/03/05 20:27:08;;;;;;;6.60;4.43;;;1.90;99.20;;;;;;6174304;23;20444;-95
2021/03/05 20:29:35;;;;;;;5.33;3.93;;;1.90;99.30;;;;;;6175647;23;20519;-95
2021/03/05 20:32:04;;;;;;;6.53;4.60;;;1.80;99.30;;;;;;6174396;23;20418;-95
2021/03/05 20:34:32;;;;;;;8.33;5.07;;;1.90;99.50;;;;;;6174102;23;20491;-96
2021/03/05 20:36:59;;;;;;;8.30;4.20;;;1.80;99.50;;;;;;6174273;23;20417;-95
2021/03/05 20:39:26;;;;;;;7.43;5.17;;;1.80;99.50;;;;;;6174268;23;20413;-95
2021/03/05 20:41:55;;;;;;;8.03;4.40;;;1.80;99.60;;;;;;6174772;23;20447;-96
2021/03/05 20:44:22;;;;;;;5.33;4.40;;;1.80;99.60;;;;;;6173978;23;20492;-95
2021/03/05 20:46:50;;;;;;;9.90;5.40;;;1.80;99.60;;;;;;6172793;23;20420;-96
2021/03/05 20:49:33;;;;;;;7.20;5.00;;;1.70;99.60;;;;;;6184333;23;20402;-91
2021/03/05 20:52:01;;;;;;;5.50;4.00;;;1.70;99.70;;;;;;6178645;23;20409;-95
2021/03/05 20:54:29;;;;;;;6.73;3.90;;;1.60;99.70;;;;;;6172684;23;20963;-95
2021/03/05 20:56:58;;;;;;;7.33;4.47;;;1.70;99.80;;;;;;6172935;23;20466;-95
2021/03/05 20:59:25;;;;;;;6.37;5.10;;;1.60;99.90;;;;;;6172583;23;20416;-94
2021/03/05 21:01:53;;;;;;;9.60;4.60;;;1.60;99.80;;;;;;6172787;23;20419;-95
2021/03/05 21:04:20;;;;;;;8.03;5.53;;;1.50;99.80;;;;;;6173679;23;20433;-95
2021/03/05 21:06:48;;;;;;;8.53;5.47;;;1.50;99.90;;;;;;6173369;23;20512;-95
2021/03/05 21:09:15;;;;;;;7.20;5.20;;;1.50;99.90;;;;;;6172284;23;20426;-95
2021/03/05 21:11:44;;;;;;;9.57;6.70;;;1.50;99.90;;;;;;6174367;23;20438;-95
2021/03/05 21:14:13;;;;;;;10.47;8.13;;;1.40;99.90;;;;;;6174846;23;20420;-95
2021/03/05 21:16:41;;;;;;;8.90;7.30;;;1.40;99.90;;;;;;6177010;23;20416;-95
2021/03/05 21:19:08;;;;;;;10.90;8.50;;;1.40;99.90;;;;;;6182166;23;20421;-94
2021/03/05 21:21:36;;;;;;;10.00;9.00;;;1.30;99.90;;;;;;6182598;23;20440;-95
2021/03/05 21:24:04;;;;;;;10.17;8.60;;;1.30;99.90;;;;;;6180688;23;20440;-94
2021/03/05 21:26:31;;;;;;;8.93;7.53;;;1.20;99.90;;;;;;6182593;23;20420;-95
2021/03/05 21:29:01;;;;;;;11.55;9.05;;;1.20;99.90;;;;;;6180415;23;20410;-94
2021/03/05 21:31:30;;;;;;;13.30;8.20;;;1.30;99.90;;;;;;6180421;23;20193;-94
2021/03/05 21:33:57;;;;;;;9.70;8.40;;;1.30;99.90;;;;;;6179317;23;20467;-94
2021/03/05 21:36:25;;;;;;;15.00;10.50;;;1.20;99.90;;;;;;6181042;23;20438;-94
2021/03/05 21:38:52;;;;;;;13.75;10.93;;;1.20;99.90;;;;;;6181160;23;20415;-94
2021/03/05 21:41:20;;;;;;;12.80;6.57;;;1.20;99.90;;;;;;6181668;23;20192;-95
2021/03/05 21:43:47;;;;;;;11.50;6.70;;;1.10;99.90;;;;;;6182306;23;20515;-95
2021/03/05 21:46:15;;;;;;;12.67;6.77;;;1.20;99.90;;;;;;6181274;23;20417;-95
2021/03/05 21:48:43;;;;;;;7.67;5.27;;;1.10;99.90;;;;;;6185909;23;20425;-95
2021/03/05 21:51:10;;;;;;;7.80;5.73;;;1.10;99.90;;;;;;6186591;23;20435;-95
2021/03/05 21:53:38;;;;;;;8.47;6.30;;;1.10;99.90;;;;;;6182218;23;20422;-95
2021/03/05 21:56:06;;;;;;;9.83;5.77;;;1.00;99.90;;;;;;6171205;23;20420;-95
2021/03/05 21:58:33;;;;;;;9.00;5.53;;;1.00;99.90;;;;;;6171112;23;20840;-95
2021/03/05 22:01:00;;;;;;;9.60;6.53;;;1.00;99.90;;;;;;6176695;23;20460;-92
2021/03/05 22:03:27;;;;;;;9.30;6.83;;;0.90;99.90;;;;;;6188320;23;20450;-93
2021/03/05 22:05:56;;;;;;;10.17;5.83;;;0.90;99.90;;;;;;6188762;23;20421;-95
2021/03/05 22:08:23;;;;;;;12.90;9.47;;;0.80;99.90;;;;;;6188751;23;20399;-94
2021/03/05 22:10:50;;;;;;;16.47;10.23;;;0.80;99.90;;;;;;6188011;23;20429;-92
2021/03/05 22:13:17;;;;;;;17.47;11.77;;;0.80;99.90;;;;;;6188839;23;20403;-93
2021/03/05 22:15:45;;;;;;;24.40;15.67;;;0.80;99.90;;;;;;6175926;23;20415;-95
2021/03/05 22:18:12;;;;;;;16.30;12.60;;;0.80;99.90;;;;;;6167588;23;20420;-95
2021/03/05 22:20:39;;;;;;;13.00;9.90;;;0.80;99.90;;;;;;6168806;23;20466;-95
2021/03/05 22:23:08;;;;;;;10.87;7.87;;;0.80;99.90;;;;;;6168070;23;20423;-95
2021/03/05 22:25:35;;;;;;;10.97;5.50;;;0.80;99.90;;;;;;6170180;23;20507;-95
2021/03/05 22:28:03;;;;;;;7.93;5.23;;;0.80;99.90;;;;;;6170021;23;20486;-95
2021/03/05 22:30:30;;;;;;;5.03;3.93;;;0.80;99.90;;;;;;6168363;23;20436;-95
2021/03/05 22:32:57;;;;;;;6.50;4.50;;;0.80;99.90;;;;;;6167299;23;20423;-95
2021/03/05 22:35:25;;;;;;;4.80;4.30;;;0.70;99.90;;;;;;6167985;23;20411;-95
2021/03/05 22:37:52;;;;;;;6.30;5.03;;;0.70;99.90;;;;;;6167877;23;20423;-95
2021/03/05 22:40:21;;;;;;;6.43;4.90;;;0.80;99.90;;;;;;6168919;23;20439;-95
2021/03/05 22:42:48;;;;;;;6.90;4.83;;;0.70;99.90;;;;;;6184145;23;20431;-93
2021/03/05 22:45:17;;;;;;;7.70;5.70;;;0.70;99.90;;;;;;6187848;23;20435;-94
2021/03/05 22:47:45;;;;;;;8.60;5.10;;;0.70;99.90;;;;;;6179329;23;20420;-95
2021/03/05 22:50:14;;;;;;;8.50;5.93;;;0.80;99.90;;;;;;6168410;23;20503;-95
2021/03/05 22:52:41;;;;;;;7.40;6.07;;;0.70;99.90;;;;;;6167887;23;20422;-95
2021/03/05 22:55:11;;;;;;;9.17;6.00;;;0.70;99.90;;;;;;6167418;23;20416;-95
2021/03/05 22:57:40;;;;;;;8.87;5.60;;;0.70;99.90;;;;;;6168142;23;20411;-94
2021/03/05 23:00:16;;;;;;;6.57;5.07;;;0.70;99.90;;;;;;6166986;23;20429;-94
2021/03/05 23:02:43;;;;;;;6.60;5.83;;;0.70;99.90;;;;;;6167441;23;20407;-95
2021/03/05 23:05:11;;;;;;;6.93;6.20;;;0.60;99.90;;;;;;6167043;23;20442;-95
2021/03/05 23:07:39;;;;;;;9.53;6.33;;;0.60;99.90;;;;;;6167290;23;20423;-95
2021/03/05 23:10:10;;;;;;;9.80;6.10;;;0.60;99.90;;;;;;6168199;23;20438;-94
2021/03/05 23:12:37;;;;;;;9.47;6.40;;;0.60;99.90;;;;;;6168843;23;20411;-95
2021/03/05 23:15:08;;;;;;;10.53;6.23;;;0.50;99.90;;;;;;6169000;23;20478;-95
2021/03/05 23:17:35;;;;;;;8.57;7.40;;;0.50;99.90;;;;;;6169037;23;20411;-95
2021/03/05 23:20:05;;;;;;;7.97;6.73;;;0.50;99.90;;;;;;6168349;23;20439;-95
2021/03/05 23:22:32;;;;;;;9.20;7.00;;;0.50;99.90;;;;;;6167469;23;20431;-95
2021/03/05 23:24:59;;;;;;;9.73;6.57;;;0.50;99.90;;;;;;6167327;23;20965;-95
2021/03/05 23:27:27;;;;;;;9.63;6.50;;;0.50;99.90;;;;;;6170405;23;20455;-94
2021/03/05 23:29:54;;;;;;;9.30;6.43;;;0.40;99.90;;;;;;6170688;23;20439;-95
2021/03/05 23:32:22;;;;;;;7.53;5.53;;;0.40;99.90;;;;;;6167220;23;20415;-95
2021/03/05 23:34:49;;;;;;;8.80;6.50;;;0.40;99.90;;;;;;6169390;23;20416;-93
2021/03/05 23:37:17;;;;;;;10.10;6.77;;;0.40;99.90;;;;;;6184748;23;20417;-94
2021/03/05 23:39:44;;;;;;;8.50;6.50;;;0.40;99.90;;;;;;6165531;23;20479;-94
2021/03/05 23:42:11;;;;;;;10.80;6.77;;;0.40;99.90;;;;;;6165676;23;20428;-95
2021/03/05 23:44:38;;;;;;;8.27;6.20;;;0.40;99.90;;;;;;6166262;23;20439;-94
2021/03/05 23:47:06;;;;;;;9.17;5.83;;;0.40;99.90;;;;;;6166084;23;20419;-94
2021/03/05 23:49:34;;;;;;;7.87;5.90;;;0.40;99.90;;;;;;6164801;23;20420;-94
2021/03/05 23:52:01;;;;;;;9.70;5.93;;;0.40;99.90;;;;;;6176113;23;20799;-94
2021/03/05 23:54:29;;;;;;;8.17;5.67;;;0.30;99.90;;;;;;6178378;23;20412;-94
2021/03/05 23:56:57;;;;;;;7.90;6.13;;;0.30;99.90;;;;;;6166517;23;20474;-95
2021/03/05 23:59:24;;;;;;;7.83;5.30;;;0.30;99.90;;;;;;6165075;23;20471;-95
